Time;durP1;ratioP1;P1;durP2;ratioP2;P2;SDS_P1;SDS_P2;PMS_P1;PMS_P2;Temp;Humidity;BMP_temperature;BMP_pressure;BME280_temperature;BME280_humidity;BME280_pressure;Samples;Min_cycle;Max_cycle;Signal;HPM_P1;HPM_P2
2024/04/01 00:01:02;;;;;;;73.40;47.80;;;10.40;99.90;;;;;;4975568;28;20060;-68
2024/04/01 00:03:29;;;;;;;71.50;48.00;;;10.40;99.90;;;;;;4996123;28;20429;-68
2024/04/01 00:05:58;;;;;;;79.80;49.35;;;10.40;99.90;;;;;;4979211;28;20050;-68
2024/04/01 00:08:24;;;;;;;83.63;51.45;;;10.50;99.90;;;;;;4974363;28;20061;-68
2024/04/01 00:10:50;;;;;;;78.43;47.40;;;10.40;99.90;;;;;;5001619;28;20034;-69
2024/04/01 00:13:17;;;;;;;85.00;46.38;;;10.30;99.90;;;;;;4975009;28;20045;-68
2024/04/01 00:15:44;;;;;;;75.03;48.63;;;10.30;99.90;;;;;;4998467;28;20061;-69
2024/04/01 00:18:10;;;;;;;78.20;48.10;;;10.20;99.90;;;;;;4991552;28;20099;-70
2024/04/01 00:20:37;;;;;;;79.10;47.80;;;10.40;99.90;;;;;;4962762;28;20631;-70
2024/04/01 00:23:03;;;;;;;77.80;46.88;;;10.40;99.90;;;;;;4994084;28;20096;-69
2024/04/01 00:25:30;;;;;;;68.35;42.35;;;10.40;99.90;;;;;;4982946;28;20054;-69
2024/04/01 00:27:56;;;;;;;77.47;41.70;;;10.40;99.90;;;;;;4990578;28;20066;-70
2024/04/01 00:30:22;;;;;;;65.65;35.20;;;10.30;99.90;;;;;;5000007;28;20445;-70
2024/04/01 00:32:48;;;;;;;67.93;35.50;;;10.20;99.90;;;;;;4976483;28;20046;-69
2024/04/01 00:35:15;;;;;;;77.97;44.17;;;10.20;99.90;;;;;;4977380;28;20042;-69
2024/04/01 00:37:41;;;;;;;81.20;48.60;;;10.10;99.90;;;;;;4994794;28;20069;-70
2024/04/01 00:40:08;;;;;;;75.20;49.90;;;10.10;99.90;;;;;;4989323;28;20093;-69
2024/04/01 00:42:34;;;;;;;77.07;50.00;;;10.10;99.90;;;;;;4994042;28;20089;-72
2024/04/01 00:45:01;;;;;;;81.47;50.58;;;9.90;99.90;;;;;;5010225;28;20041;-68
2024/04/01 00:47:28;;;;;;;75.90;49.28;;;9.90;99.90;;;;;;5004594;28;20061;-70
2024/04/01 00:49:55;;;;;;;70.75;42.38;;;9.90;99.90;;;;;;4997111;28;20052;-70
2024/04/01 00:52:22;;;;;;;69.28;39.85;;;9.90;99.90;;;;;;4989857;28;20041;-69
2024/04/01 00:54:49;;;;;;;66.05;40.13;;;9.90;99.90;;;;;;4997972;28;20102;-69
2024/04/01 00:57:16;;;;;;;66.60;39.35;;;9.70;99.90;;;;;;4997030;28;20127;-69
2024/04/01 00:59:43;;;;;;;65.03;42.03;;;9.70;99.90;;;;;;4983703;28;20041;-68
2024/04/01 01:02:12;;;;;;;73.53;41.35;;;9.60;99.90;;;;;;4998294;28;20049;-71
2024/04/01 01:04:40;;;;;;;75.22;39.72;;;9.70;99.90;;;;;;5015195;28;20314;-69
2024/04/01 01:07:06;;;;;;;66.43;38.67;;;9.70;99.90;;;;;;4981998;28;20034;-68
2024/04/01 01:09:33;;;;;;;62.67;38.80;;;9.60;99.90;;;;;;4986108;28;20042;-70
2024/04/01 01:12:01;;;;;;;62.92;37.70;;;9.60;99.90;;;;;;4997264;28;20147;-70
2024/04/01 01:14:27;;;;;;;70.78;35.17;;;9.60;99.90;;;;;;5015212;28;20057;-71
2024/04/01 01:16:54;;;;;;;56.10;32.92;;;9.60;99.90;;;;;;4986675;28;20038;-68
2024/04/01 01:19:20;;;;;;;73.80;37.60;;;9.50;99.90;;;;;;4985708;28;20047;-68
2024/04/01 01:21:48;;;;;;;62.80;37.28;;;9.40;99.90;;;;;;4981684;28;20041;-71
2024/04/01 01:24:14;;;;;;;70.20;36.92;;;9.40;99.90;;;;;;4995345;28;20049;-69
2024/04/01 01:26:40;;;;;;;62.17;37.60;;;9.40;99.90;;;;;;4994636;28;20042;-70
2024/04/01 01:29:06;;;;;;;63.53;37.28;;;9.30;99.90;;;;;;4981984;28;20675;-70
2024/04/01 01:31:33;;;;;;;77.35;37.85;;;9.30;99.90;;;;;;4973294;28;20049;-70
2024/04/01 01:33:59;;;;;;;63.25;36.15;;;9.40;99.90;;;;;;4996728;28;20108;-70
2024/04/01 01:36:25;;;;;;;59.22;34.83;;;9.40;99.90;;;;;;4974404;28;20050;-68
2024/04/01 01:38:51;;;;;;;62.08;31.38;;;9.40;99.90;;;;;;4992100;28;20572;-69
2024/04/01 01:41:17;;;;;;;54.65;32.15;;;9.40;99.90;;;;;;4991026;28;20049;-70
2024/04/01 01:43:44;;;;;;;61.50;33.15;;;9.30;99.90;;;;;;4977417;28;20045;-69
2024/04/01 01:46:10;;;;;;;52.67;36.75;;;9.30;99.90;;;;;;5002326;28;20053;-69
2024/04/01 01:48:36;;;;;;;62.65;35.42;;;9.20;99.90;;;;;;4974241;28;20065;-71
2024/04/01 01:51:02;;;;;;;52.75;31.40;;;9.10;99.90;;;;;;4972934;28;20042;-70
2024/04/01 01:53:28;;;;;;;45.47;30.10;;;9.20;99.90;;;;;;4985735;28;20050;-68
2024/04/01 01:55:54;;;;;;;54.75;31.40;;;9.20;99.90;;;;;;4994424;28;20037;-70
2024/04/01 01:58:20;;;;;;;43.90;30.08;;;9.10;99.90;;;;;;4968657;28;20046;-68
2024/04/01 02:00:46;;;;;;;51.53;29.75;;;9.10;99.90;;;;;;4974431;28;20055;-71
2024/04/01 02:03:12;;;;;;;46.92;28.50;;;9.20;99.90;;;;;;5006661;28;20053;-69
2024/04/01 02:05:40;;;;;;;52.22;31.05;;;9.20;99.90;;;;;;5013018;28;20560;-70
2024/04/01 02:08:06;;;;;;;44.13;26.55;;;9.20;99.90;;;;;;4989467;28;20041;-68
2024/04/01 02:10:35;;;;;;;39.38;25.40;;;9.20;99.90;;;;;;4974132;28;20053;-68
2024/04/01 02:13:04;;;;;;;48.78;25.15;;;9.30;99.90;;;;;;4976734;28;20060;-70
2024/04/01 02:15:30;;;;;;;39.28;23.13;;;9.20;99.90;;;;;;4989245;28;20673;-70
2024/04/01 02:17:56;;;;;;;44.00;26.45;;;9.20;99.90;;;;;;4990575;28;20057;-70
2024/04/01 02:20:23;;;;;;;47.83;26.75;;;9.20;99.90;;;;;;4991522;28;20813;-69
2024/04/01 02:22:49;;;;;;;39.65;25.13;;;9.10;99.90;;;;;;4974590;28;20038;-69
2024/04/01 02:25:18;;;;;;;42.50;25.67;;;9.20;99.90;;;;;;4990540;28;20046;-69
2024/04/01 02:27:44;;;;;;;37.75;25.08;;;9.20;99.90;;;;;;4993279;28;20050;-70
2024/04/01 02:30:11;;;;;;;46.55;24.50;;;9.30;99.90;;;;;;4987830;28;20058;-67
2024/04/01 02:32:37;;;;;;;30.40;21.50;;;9.30;99.90;;;;;;4976753;28;20045;-69
2024/04/01 02:35:04;;;;;;;35.97;21.42;;;9.20;99.90;;;;;;4988184;28;20053;-69
2024/04/01 02:37:30;;;;;;;30.23;18.05;;;8.80;99.90;;;;;;4984508;28;20049;-69
2024/04/01 02:39:56;;;;;;;31.25;16.52;;;8.60;99.90;;;;;;4993202;28;20038;-69
2024/04/01 02:42:22;;;;;;;41.92;19.65;;;8.60;99.90;;;;;;4994140;28;20038;-70
2024/04/01 02:44:48;;;;;;;28.23;19.35;;;8.60;99.90;;;;;;4997021;28;20166;-69
2024/04/01 02:47:15;;;;;;;29.85;19.58;;;8.60;99.90;;;;;;4989933;28;20042;-69
2024/04/01 02:49:41;;;;;;;32.92;20.45;;;8.70;99.90;;;;;;4998632;28;20049;-70
2024/04/01 02:52:07;;;;;;;23.13;18.95;;;8.80;99.90;;;;;;4997236;28;20513;-70
2024/04/01 02:54:33;;;;;;;31.60;19.23;;;8.80;99.90;;;;;;4977612;28;20417;-69
2024/04/01 02:56:59;;;;;;;32.85;20.73;;;8.80;99.90;;;;;;4976710;28;20050;-68
2024/04/01 02:59:26;;;;;;;40.60;20.60;;;8.80;99.90;;;;;;4989809;28;20037;-68
2024/04/01 03:01:51;;;;;;;37.65;22.88;;;9.00;99.90;;;;;;5005913;28;20129;-68
2024/04/01 03:04:17;;;;;;;35.95;22.80;;;8.90;99.90;;;;;;4999168;28;20102;-70
2024/04/01 03:06:44;;;;;;;31.38;22.83;;;9.10;99.90;;;;;;5015664;28;20497;-70
2024/04/01 03:09:10;;;;;;;42.38;24.60;;;9.20;99.90;;;;;;4979290;28;20141;-69
2024/04/01 03:11:36;;;;;;;40.63;23.55;;;9.10;99.90;;;;;;4963716;28;20050;-70
2024/04/01 03:14:02;;;;;;;40.42;23.20;;;9.10;99.90;;;;;;4975086;28;20046;-69
2024/04/01 03:16:28;;;;;;;42.30;22.25;;;9.00;99.90;;;;;;4979585;28;20050;-70
2024/04/01 03:18:54;;;;;;;35.72;21.52;;;9.10;99.90;;;;;;5003537;28;20125;-69
2024/04/01 03:21:20;;;;;;;36.25;22.90;;;9.00;99.90;;;;;;4994709;28;20537;-68
2024/04/01 03:23:46;;;;;;;38.17;23.88;;;9.00;99.90;;;;;;4994598;28;20042;-70
2024/04/01 03:26:12;;;;;;;40.17;20.63;;;8.90;99.90;;;;;;4985881;28;20641;-70
2024/04/01 03:28:38;;;;;;;40.88;21.15;;;8.90;99.90;;;;;;4973651;28;20076;-69
2024/04/01 03:31:06;;;;;;;32.47;22.77;;;8.90;99.90;;;;;;5003161;28;20045;-70
2024/04/01 03:33:33;;;;;;;40.88;22.70;;;8.90;99.90;;;;;;4996791;28;20092;-69
2024/04/01 03:35:59;;;;;;;36.92;23.20;;;9.00;99.90;;;;;;4994007;28;20034;-69
2024/04/01 03:38:26;;;;;;;46.50;24.70;;;9.00;99.90;;;;;;4997634;28;20086;-70
2024/04/01 03:40:52;;;;;;;37.97;23.33;;;9.10;99.90;;;;;;4986384;28;20046;-69
2024/04/01 03:43:21;;;;;;;37.45;23.00;;;9.00;99.90;;;;;;4977387;28;20050;-70
2024/04/01 03:46:01;;;;;;;36.92;23.08;;;8.90;99.90;;;;;;4975000;28;20041;-70
2024/04/01 03:48:28;;;;;;;35.65;22.55;;;8.90;99.90;;;;;;4991596;28;20612;-69
2024/04/01 03:50:54;;;;;;;39.03;23.30;;;9.00;99.90;;;;;;5020057;28;20047;-68
2024/04/01 03:53:20;;;;;;;31.77;21.73;;;9.10;99.90;;;;;;4974255;28;20041;-70
2024/04/01 03:55:46;;;;;;;39.28;24.92;;;9.10;99.90;;;;;;4975409;28;20053;-69
2024/04/01 03:58:16;;;;;;;56.70;26.05;;;9.00;99.90;;;;;;4991033;28;20058;-69
2024/04/01 04:00:42;;;;;;;40.78;23.30;;;9.10;99.90;;;;;;4996083;28;20050;-68
2024/04/01 04:03:08;;;;;;;42.13;23.38;;;9.20;99.90;;;;;;4987152;28;20054;-70
2024/04/01 04:05:35;;;;;;;40.45;23.00;;;9.20;99.90;;;;;;4977843;28;20709;-68
2024/04/01 04:08:01;;;;;;;38.90;23.83;;;9.20;99.90;;;;;;5010431;28;20053;-70
2024/04/01 04:10:29;;;;;;;38.45;22.30;;;9.20;99.90;;;;;;4977491;28;20045;-70
2024/04/01 04:12:55;;;;;;;39.13;23.35;;;9.10;99.90;;;;;;4999947;28;20631;-69
2024/04/01 04:15:21;;;;;;;40.08;23.38;;;9.10;99.90;;;;;;4996434;28;20049;-69
2024/04/01 04:17:48;;;;;;;42.30;25.83;;;9.20;99.90;;;;;;5011582;28;20049;-70
2024/04/01 04:20:14;;;;;;;40.83;24.48;;;9.00;99.90;;;;;;5012933;28;20578;-69
2024/04/01 04:22:40;;;;;;;44.75;25.88;;;9.10;99.90;;;;;;4990995;28;20050;-69
2024/04/01 04:25:06;;;;;;;53.55;27.20;;;9.00;99.90;;;;;;4959158;28;20650;-68
2024/04/01 04:27:32;;;;;;;40.63;25.52;;;9.00;99.90;;;;;;4967910;28;20502;-69
2024/04/01 04:29:58;;;;;;;43.40;27.60;;;9.00;99.90;;;;;;4982515;28;20044;-69
2024/04/01 04:32:25;;;;;;;51.53;28.17;;;8.90;99.90;;;;;;4999345;28;20612;-69
2024/04/01 04:34:51;;;;;;;46.65;26.35;;;8.90;99.90;;;;;;5012476;28;20902;-68
2024/04/01 04:37:17;;;;;;;45.33;26.65;;;9.10;99.90;;;;;;4971643;28;20097;-69
2024/04/01 04:39:43;;;;;;;51.17;25.73;;;9.10;99.90;;;;;;4989720;28;20092;-70
2024/04/01 04:42:09;;;;;;;37.05;25.45;;;9.00;99.90;;;;;;4967246;28;20037;-69
2024/04/01 04:44:36;;;;;;;45.70;24.17;;;9.10;99.90;;;;;;4977824;28;20476;-70
2024/04/01 04:47:02;;;;;;;37.53;24.15;;;9.00;99.90;;;;;;4988387;28;20501;-68
2024/04/01 04:49:31;;;;;;;39.85;23.88;;;8.90;99.90;;;;;;4984304;28;20054;-69
2024/04/01 04:51:57;;;;;;;56.30;27.02;;;8.90;99.90;;;;;;5009283;28;20042;-68
2024/04/01 04:54:23;;;;;;;46.08;26.33;;;8.80;99.90;;;;;;5012017;28;20045;-68
2024/04/01 04:56:49;;;;;;;52.88;27.77;;;8.80;99.90;;;;;;4976853;28;20043;-68
2024/04/01 04:59:15;;;;;;;55.92;28.80;;;8.90;99.90;;;;;;4970993;28;20117;-70
2024/04/01 05:01:42;;;;;;;52.90;28.95;;;9.00;99.90;;;;;;4990972;28;20046;-70
2024/04/01 05:04:08;;;;;;;64.80;30.67;;;9.00;99.90;;;;;;4999421;28;20111;-70
2024/04/01 05:06:34;;;;;;;57.53;32.28;;;9.20;99.90;;;;;;4994289;28;20048;-69
2024/04/01 05:09:01;;;;;;;55.80;31.60;;;9.10;99.90;;;;;;4990402;28;20038;-68
2024/04/01 05:11:27;;;;;;;50.30;33.55;;;9.10;99.90;;;;;;4982253;28;20750;-69
2024/04/01 05:13:54;;;;;;;55.00;33.30;;;9.20;99.90;;;;;;4992678;28;20057;-68
2024/04/01 05:16:20;;;;;;;49.40;33.45;;;9.20;99.90;;;;;;4980179;28;20469;-70
2024/04/01 05:18:47;;;;;;;52.83;34.95;;;9.30;99.90;;;;;;4989566;28;20073;-70
2024/04/01 05:21:13;;;;;;;58.05;35.80;;;9.30;99.90;;;;;;4955276;28;20061;-70
2024/04/01 05:23:39;;;;;;;58.88;34.85;;;9.40;99.90;;;;;;4971530;28;20599;-68
2024/04/01 05:26:08;;;;;;;53.55;31.98;;;9.30;99.90;;;;;;4965235;28;20046;-70
2024/04/01 05:28:35;;;;;;;51.70;32.42;;;9.30;99.90;;;;;;4969149;28;20049;-68
2024/04/01 05:31:01;;;;;;;57.95;31.63;;;9.40;99.90;;;;;;4978797;28;20574;-70
2024/04/01 05:33:33;;;;;;;57.47;33.67;;;9.30;99.90;;;;;;4978495;28;20050;-69
2024/04/01 05:36:02;;;;;;;47.25;33.08;;;9.30;99.90;;;;;;4993420;28;20057;-70
2024/04/01 05:38:28;;;;;;;51.38;30.45;;;9.40;99.90;;;;;;4971284;28;20046;-70
2024/04/01 05:40:55;;;;;;;61.25;30.77;;;9.40;99.90;;;;;;4987638;28;20942;-71
2024/04/01 05:43:21;;;;;;;54.47;32.63;;;9.30;99.90;;;;;;4982070;28;20065;-71
2024/04/01 05:45:50;;;;;;;52.88;30.65;;;9.20;99.90;;;;;;4988995;28;20077;-72
2024/04/01 05:48:17;;;;;;;59.03;33.67;;;9.20;99.90;;;;;;4977018;28;20050;-73
2024/04/01 05:50:51;;;;;;;66.18;35.80;;;9.10;99.90;;;;;;4994704;28;20507;-74
2024/04/01 05:53:23;;;;;;;61.63;37.83;;;9.00;99.90;;;;;;4985725;28;20057;-72
2024/04/01 05:55:52;;;;;;;86.47;42.72;;;9.00;99.90;;;;;;5003720;28;20125;-74
2024/04/01 05:58:18;;;;;;;61.45;36.05;;;9.00;99.90;;;;;;4977081;28;20053;-75
2024/04/01 06:00:45;;;;;;;42.60;24.50;;;9.20;99.90;;;;;;4997851;28;20053;-72
2024/04/01 06:03:11;;;;;;;15.60;9.82;;;9.20;99.90;;;;;;5005086;28;20117;-70
2024/04/01 06:05:37;;;;;;;18.83;8.88;;;9.30;99.90;;;;;;4984545;28;20046;-71
2024/04/01 06:08:04;;;;;;;7.88;5.82;;;9.40;99.90;;;;;;5008103;28;20093;-72
2024/04/01 06:10:30;;;;;;;27.65;10.60;;;9.50;99.90;;;;;;4984820;28;20068;-70
2024/04/01 06:13:07;;;;;;;48.10;29.75;;;9.60;99.90;;;;;;4992097;28;20046;-72
2024/04/01 06:15:37;;;;;;;58.45;36.08;;;9.60;99.90;;;;;;4988139;28;20046;-72
2024/04/01 06:18:04;;;;;;;44.33;32.58;;;9.60;99.90;;;;;;4983220;28;20054;-71
2024/04/01 06:20:37;;;;;;;35.58;25.45;;;9.70;99.90;;;;;;4966928;28;20050;-72
2024/04/01 06:23:04;;;;;;;22.65;12.77;;;9.60;99.90;;;;;;5008976;28;20087;-69
2024/04/01 06:25:30;;;;;;;15.00;8.07;;;9.50;99.90;;;;;;4985385;28;20130;-68
2024/04/01 06:27:57;;;;;;;16.95;9.23;;;9.50;99.90;;;;;;4993477;28;20046;-71
2024/04/01 06:30:26;;;;;;;16.92;10.07;;;9.50;99.90;;;;;;5001684;28;20046;-71
2024/04/01 06:32:54;;;;;;;18.63;10.45;;;9.40;99.90;;;;;;5010095;28;20052;-72
2024/04/01 06:35:21;;;;;;;17.88;12.52;;;9.40;99.90;;;;;;4977854;28;20112;-71
2024/04/01 06:37:48;;;;;;;23.50;13.73;;;9.50;99.90;;;;;;4990301;28;20469;-73
2024/04/01 06:40:15;;;;;;;16.10;9.80;;;9.60;99.90;;;;;;5010719;28;20065;-73
2024/04/01 06:42:41;;;;;;;13.93;9.27;;;9.60;99.90;;;;;;4991751;28;20034;-73
2024/04/01 06:45:07;;;;;;;14.95;8.85;;;9.60;99.90;;;;;;5028183;28;20046;-73
2024/04/01 06:47:35;;;;;;;22.48;9.20;;;9.60;99.90;;;;;;5008442;28;20437;-71
2024/04/01 06:50:02;;;;;;;29.70;21.70;;;9.60;99.90;;;;;;4997435;28;20042;-73
2024/04/01 06:52:29;;;;;;;14.55;9.50;;;9.60;99.90;;;;;;4970816;28;20545;-70
2024/04/01 06:54:55;;;;;;;13.73;8.45;;;9.60;99.90;;;;;;5009484;28;20049;-73
2024/04/01 06:57:21;;;;;;;15.68;7.50;;;9.70;99.90;;;;;;4975135;28;20364;-70
2024/04/01 06:59:47;;;;;;;11.80;7.97;;;9.70;99.90;;;;;;4990844;28;20049;-73
2024/04/01 07:02:14;;;;;;;13.88;7.53;;;9.80;99.90;;;;;;4999539;28;20041;-71
2024/04/01 07:04:40;;;;;;;9.05;6.50;;;9.80;99.90;;;;;;5030031;28;20054;-70
2024/04/01 07:07:06;;;;;;;13.48;8.30;;;9.80;99.90;;;;;;4997559;28;20045;-72
2024/04/01 07:09:34;;;;;;;12.32;7.72;;;9.80;99.90;;;;;;4993366;28;20066;-70
2024/04/01 07:12:01;;;;;;;10.02;7.10;;;9.80;99.90;;;;;;5013433;28;20434;-71
2024/04/01 07:14:29;;;;;;;10.02;7.07;;;9.80;99.90;;;;;;4999427;28;20132;-72
2024/04/01 07:16:55;;;;;;;9.25;6.90;;;9.80;99.90;;;;;;4990672;28;20557;-71
2024/04/01 07:19:21;;;;;;;11.70;7.15;;;9.90;99.90;;;;;;4984100;28;20053;-70
2024/04/01 07:21:48;;;;;;;13.23;7.85;;;9.90;99.90;;;;;;4994894;28;20076;-72
2024/04/01 07:24:15;;;;;;;8.90;8.00;;;9.90;99.90;;;;;;4963434;28;20140;-72
2024/04/01 07:26:41;;;;;;;14.90;8.98;;;10.00;99.90;;;;;;4996383;28;20057;-72
2024/04/01 07:29:07;;;;;;;10.70;8.55;;;10.10;99.90;;;;;;4997677;28;20640;-72
2024/04/01 07:31:33;;;;;;;13.45;8.23;;;10.00;99.90;;;;;;5005412;28;20038;-71
2024/04/01 07:34:01;;;;;;;13.05;8.52;;;10.00;99.90;;;;;;4999640;28;20046;-71
2024/04/01 07:36:29;;;;;;;14.15;9.52;;;9.90;99.90;;;;;;5034501;28;20049;-72
2024/04/01 07:38:55;;;;;;;15.23;9.55;;;9.90;99.90;;;;;;4995186;28;20096;-71
2024/04/01 07:41:21;;;;;;;12.35;9.25;;;10.00;99.90;;;;;;5007756;28;20100;-71
2024/04/01 07:43:47;;;;;;;12.30;10.15;;;9.90;99.90;;;;;;4969008;28;20398;-71
2024/04/01 07:46:13;;;;;;;14.05;9.70;;;9.90;99.90;;;;;;5013053;28;20049;-71
2024/04/01 07:48:40;;;;;;;15.95;11.48;;;9.80;99.90;;;;;;5024710;28;20049;-73
2024/04/01 07:51:06;;;;;;;18.85;13.77;;;9.80;99.90;;;;;;5008709;28;20053;-73
2024/04/01 07:53:33;;;;;;;20.65;14.27;;;9.90;99.90;;;;;;4986850;28;20045;-73
2024/04/01 07:55:59;;;;;;;22.13;14.57;;;9.90;99.90;;;;;;5023432;28;20052;-72
2024/04/01 07:58:25;;;;;;;18.80;14.77;;;9.90;99.90;;;;;;4972865;28;20050;-72
2024/04/01 08:00:54;;;;;;;22.98;15.68;;;10.00;99.90;;;;;;4974168;28;20063;-71
2024/04/01 08:03:20;;;;;;;26.65;16.85;;;10.00;99.90;;;;;;5013569;28;20106;-72
2024/04/01 08:05:49;;;;;;;19.20;15.60;;;10.00;99.90;;;;;;4992947;28;20072;-71
2024/04/01 08:08:15;;;;;;;21.08;14.13;;;9.90;99.90;;;;;;4993619;28;20959;-72
2024/04/01 08:10:45;;;;;;;30.05;15.50;;;9.80;99.90;;;;;;4995477;28;20038;-72
2024/04/01 08:13:11;;;;;;;16.25;12.85;;;9.90;99.90;;;;;;4980837;28;20050;-72
2024/04/01 08:15:37;;;;;;;16.08;12.80;;;9.90;99.90;;;;;;4976794;28;20067;-72
2024/04/01 08:18:04;;;;;;;13.63;11.10;;;9.80;99.90;;;;;;5007527;28;20057;-71
2024/04/01 08:20:30;;;;;;;16.13;8.60;;;9.90;99.90;;;;;;5001814;28;20037;-72
2024/04/01 08:22:56;;;;;;;14.60;9.82;;;9.90;99.90;;;;;;4985039;28;20061;-72
2024/04/01 08:25:22;;;;;;;14.15;10.27;;;9.90;99.90;;;;;;4983095;28;20408;-71
2024/04/01 08:27:52;;;;;;;15.95;11.82;;;10.00;99.90;;;;;;4979390;28;20170;-72
2024/04/01 08:30:22;;;;;;;22.70;14.07;;;10.10;99.90;;;;;;5010541;28;20045;-71
2024/04/01 08:32:49;;;;;;;21.00;14.35;;;10.20;99.90;;;;;;5004038;28;20118;-70
2024/04/01 08:35:15;;;;;;;15.63;12.60;;;10.20;99.90;;;;;;5002099;28;20073;-72
2024/04/01 08:37:41;;;;;;;15.43;11.75;;;10.20;99.90;;;;;;4979850;28;20034;-70
2024/04/01 08:40:35;;;;;;;20.83;12.45;;;10.20;99.90;;;;;;4997087;28;20556;-70
2024/04/01 08:43:09;;;;;;;17.60;11.43;;;10.10;99.90;;;;;;5001824;28;20038;-72
2024/04/01 08:45:39;;;;;;;15.52;12.30;;;10.20;99.90;;;;;;5001051;28;20638;-71
2024/04/01 08:48:12;;;;;;;18.27;13.00;;;10.20;99.90;;;;;;5000739;28;20038;-71
2024/04/01 08:51:06;;;;;;;18.15;13.98;;;10.10;99.90;;;;;;4981290;28;20042;-70
2024/04/01 08:53:43;;;;;;;17.70;13.23;;;10.20;99.90;;;;;;4995781;28;20042;-71
2024/04/01 08:56:12;;;;;;;13.13;11.65;;;10.20;99.90;;;;;;4998368;28;20848;-71
2024/04/01 08:58:38;;;;;;;17.02;12.32;;;10.30;99.90;;;;;;4991506;28;20046;-71
2024/04/01 09:01:04;;;;;;;13.13;11.50;;;10.30;99.90;;;;;;4980491;28;20070;-71
2024/04/01 09:03:33;;;;;;;23.88;16.27;;;10.20;99.90;;;;;;4971092;28;20037;-71
2024/04/01 09:06:00;;;;;;;20.23;16.38;;;10.10;99.90;;;;;;4973999;28;20578;-72
2024/04/01 09:08:28;;;;;;;25.38;17.33;;;10.00;99.90;;;;;;4960472;28;20058;-73
2024/04/01 09:10:55;;;;;;;21.38;17.27;;;10.00;99.90;;;;;;4979556;28;20049;-71
2024/04/01 09:13:23;;;;;;;27.50;20.08;;;10.00;99.90;;;;;;4986927;28;20042;-73
2024/04/01 09:15:50;;;;;;;29.33;19.85;;;9.90;99.90;;;;;;4983142;28;20053;-73
2024/04/01 09:18:16;;;;;;;24.52;19.17;;;9.90;99.90;;;;;;4979921;28;20121;-73
2024/04/01 09:20:44;;;;;;;39.55;20.85;;;9.80;99.90;;;;;;5000405;28;20049;-69
2024/04/01 09:23:11;;;;;;;23.30;18.13;;;9.80;99.90;;;;;;4975371;28;20062;-73
2024/04/01 09:25:38;;;;;;;31.73;23.80;;;9.90;99.90;;;;;;4990430;28;20042;-72
2024/04/01 09:28:05;;;;;;;29.75;22.10;;;9.80;99.90;;;;;;4989253;28;21191;-71
2024/04/01 09:30:32;;;;;;;26.65;21.90;;;9.90;99.90;;;;;;4985992;28;20041;-71
2024/04/01 09:33:00;;;;;;;27.23;22.60;;;10.00;99.90;;;;;;4995109;28;20077;-72
2024/04/01 09:35:27;;;;;;;27.15;21.95;;;10.10;99.90;;;;;;4982864;28;20119;-72
2024/04/01 09:38:01;;;;;;;28.45;22.27;;;10.00;99.90;;;;;;5007729;28;20077;-70
2024/04/01 09:40:30;;;;;;;30.27;23.20;;;10.00;99.90;;;;;;4988954;28;20041;-72
2024/04/01 09:42:57;;;;;;;26.17;22.05;;;10.20;99.90;;;;;;4975834;28;20590;-72
2024/04/01 09:45:24;;;;;;;23.38;20.65;;;10.30;99.90;;;;;;4981242;28;20042;-70
2024/04/01 09:47:52;;;;;;;27.95;20.45;;;10.20;99.90;;;;;;4991202;28;20053;-70
2024/04/01 09:50:21;;;;;;;27.05;21.05;;;10.20;99.90;;;;;;4984247;28;20042;-72
2024/04/01 09:52:47;;;;;;;26.80;21.92;;;10.20;99.90;;;;;;4970187;28;20049;-71
2024/04/01 09:55:21;;;;;;;28.67;23.42;;;10.10;99.90;;;;;;4999840;28;20115;-72
2024/04/01 09:57:50;;;;;;;30.85;23.60;;;10.10;99.90;;;;;;5003923;28;20116;-70
2024/04/01 10:00:20;;;;;;;28.02;23.45;;;10.10;99.90;;;;;;4992613;28;20033;-73
2024/04/01 10:03:06;;;;;;;30.33;25.00;;;10.00;99.90;;;;;;4994856;28;20041;-69
2024/04/01 10:06:11;;;;;;;32.28;24.75;;;10.00;99.90;;;;;;4990631;28;20650;-72
2024/04/01 10:09:11;;;;;;;30.52;25.13;;;9.90;99.90;;;;;;4985996;28;20045;-72
2024/04/01 10:11:56;;;;;;;35.35;26.20;;;9.90;99.90;;;;;;4991083;28;20037;-72
2024/04/01 10:14:31;;;;;;;34.77;28.37;;;9.90;99.90;;;;;;4969806;28;20533;-72
2024/04/01 10:17:24;;;;;;;33.97;26.67;;;10.00;99.90;;;;;;4982092;28;20315;-70
2024/04/01 10:20:16;;;;;;;26.98;22.17;;;10.10;99.90;;;;;;5009260;28;20053;-73
2024/04/01 10:23:13;;;;;;;28.95;23.70;;;10.10;99.90;;;;;;5007839;28;20576;-72
2024/04/01 10:26:01;;;;;;;27.15;22.70;;;10.10;99.90;;;;;;5008495;28;20041;-72
2024/04/01 10:28:47;;;;;;;24.30;19.48;;;10.10;99.90;;;;;;4972006;28;20050;-72
2024/04/01 10:31:31;;;;;;;22.58;17.85;;;9.90;99.90;;;;;;5005025;28;20751;-72
2024/04/01 10:34:35;;;;;;;23.97;18.70;;;9.80;99.90;;;;;;4989837;28;20153;-72
2024/04/01 10:37:33;;;;;;;22.08;17.52;;;9.80;99.90;;;;;;4991180;28;20038;-72
2024/04/01 10:40:15;;;;;;;21.67;17.08;;;9.90;99.90;;;;;;4998774;28;20042;-71
2024/04/01 10:43:35;;;;;;;19.25;15.50;;;9.90;99.90;;;;;;4991029;28;20034;-72
2024/04/01 10:46:10;;;;;;;20.75;15.82;;;9.80;99.90;;;;;;4937379;28;20481;-73
2024/04/01 10:48:56;;;;;;;20.80;15.55;;;9.90;99.90;;;;;;4983169;28;20041;-72
2024/04/01 10:51:54;;;;;;;18.70;14.93;;;9.80;99.90;;;;;;4992538;28;20047;-71
2024/04/01 10:54:22;;;;;;;21.10;15.23;;;9.80;99.90;;;;;;4976434;28;20108;-72
2024/04/01 10:57:20;;;;;;;20.50;14.65;;;9.90;99.90;;;;;;4992968;28;20038;-72
2024/04/01 11:00:05;;;;;;;25.27;17.65;;;9.90;99.90;;;;;;5011497;28;20142;-72
2024/04/01 11:02:43;;;;;;;20.63;14.05;;;9.80;99.90;;;;;;5001709;28;20042;-71
2024/04/01 11:05:28;;;;;;;13.93;11.32;;;9.80;99.90;;;;;;5004982;28;20976;-72
2024/04/01 11:08:11;;;;;;;;;;;9.80;99.90;;;;;;4988059;28;20088;-70
2024/04/01 11:10:47;;;;;;;19.13;12.45;;;9.80;99.90;;;;;;4977988;28;19928;-71
2024/04/01 11:13:19;;;;;;;23.08;14.88;;;9.90;99.90;;;;;;5008818;28;20643;-71
2024/04/01 11:15:48;;;;;;;20.90;15.93;;;9.90;99.90;;;;;;4978631;28;20057;-71
2024/04/01 11:19:02;;;;;;;24.63;16.40;;;9.80;99.90;;;;;;4981587;28;20061;-71
2024/04/01 11:21:37;;;;;;;25.10;18.90;;;9.90;99.90;;;;;;4986873;28;20041;-73
2024/04/01 11:24:19;;;;;;;23.75;18.23;;;9.80;99.90;;;;;;4991865;28;20054;-72
2024/04/01 11:27:07;;;;;;;25.80;17.75;;;9.80;99.90;;;;;;4998455;28;20387;-71
2024/04/01 11:29:43;;;;;;;25.52;17.88;;;9.80;99.90;;;;;;5017505;28;20065;-71
2024/04/01 11:32:16;;;;;;;;;;;9.80;99.90;;;;;;4995828;28;20041;-72
2024/04/01 11:34:52;;;;;;;20.75;14.27;;;9.90;99.90;;;;;;4983035;28;19925;-71
2024/04/01 11:37:38;;;;;;;24.75;16.50;;;9.90;99.90;;;;;;4977327;28;20053;-72
2024/04/01 11:40:15;;;;;;;23.25;17.00;;;9.90;99.90;;;;;;4969617;28;20046;-72
2024/04/01 11:42:46;;;;;;;19.02;14.20;;;9.90;99.90;;;;;;4962856;28;20134;-72
2024/04/01 11:45:15;;;;;;;26.58;19.17;;;9.90;99.90;;;;;;4969944;28;20531;-72
2024/04/01 11:47:44;;;;;;;24.20;18.13;;;9.90;99.90;;;;;;4995350;28;20038;-73
2024/04/01 11:50:20;;;;;;;24.77;17.98;;;10.10;99.90;;;;;;4993154;28;20111;-72
2024/04/01 11:53:06;;;;;;;28.73;20.73;;;10.20;99.90;;;;;;4976885;28;20049;-72
2024/04/01 11:55:33;;;;;;;26.40;18.25;;;10.20;99.90;;;;;;5001400;28;20068;-72
2024/04/01 11:58:09;;;;;;;24.73;18.65;;;10.20;99.90;;;;;;4978148;28;20048;-73
2024/04/01 12:00:36;;;;;;;21.08;16.17;;;10.30;99.90;;;;;;4995553;28;20551;-72
2024/04/01 12:03:02;;;;;;;20.45;16.08;;;10.20;99.90;;;;;;4993018;28;20151;-71
2024/04/01 12:05:29;;;;;;;23.42;17.30;;;10.10;99.90;;;;;;4992917;28;20105;-71
2024/04/01 12:07:57;;;;;;;25.17;17.88;;;10.10;99.90;;;;;;4977345;28;20080;-72
2024/04/01 12:10:28;;;;;;;22.17;17.88;;;10.20;99.90;;;;;;4989889;28;20043;-70
2024/04/01 12:12:55;;;;;;;16.60;13.40;;;10.20;99.90;;;;;;4977153;28;20038;-72
2024/04/01 12:15:22;;;;;;;12.75;11.43;;;10.20;99.90;;;;;;5006316;28;20080;-71
2024/04/01 12:17:49;;;;;;;11.05;9.55;;;10.30;99.90;;;;;;4995886;28;20037;-72
2024/04/01 12:20:16;;;;;;;12.57;10.10;;;10.30;99.90;;;;;;4994902;28;20041;-72
2024/04/01 12:22:43;;;;;;;14.80;10.60;;;10.30;99.90;;;;;;5006728;28;20038;-71
2024/04/01 12:25:11;;;;;;;15.43;12.68;;;10.30;99.90;;;;;;4994580;28;20037;-71
2024/04/01 12:27:38;;;;;;;18.02;14.43;;;10.30;99.90;;;;;;4978660;28;20600;-72
2024/04/01 12:30:06;;;;;;;20.38;16.92;;;10.20;99.90;;;;;;4978464;28;20046;-70
2024/04/01 12:32:43;;;;;;;20.05;16.88;;;10.30;99.90;;;;;;4992566;28;20046;-71
2024/04/01 12:35:14;;;;;;;25.02;20.10;;;10.20;99.90;;;;;;4978388;28;20056;-75
2024/04/01 12:37:41;;;;;;;30.05;21.80;;;10.20;99.90;;;;;;4981597;28;20068;-74
2024/04/01 12:40:08;;;;;;;29.05;21.55;;;10.00;99.90;;;;;;4953977;28;20441;-71
2024/04/01 12:42:37;;;;;;;31.38;21.83;;;10.00;99.90;;;;;;4999726;28;20601;-72
2024/04/01 12:45:05;;;;;;;38.08;24.55;;;10.00;99.90;;;;;;4996009;28;20583;-70
2024/04/01 12:47:33;;;;;;;49.35;29.80;;;9.90;99.90;;;;;;4977749;28;20053;-71